Time;durP1;ratioP1;P1;durP2;ratioP2;P2;SDS_P1;SDS_P2;PMS_P1;PMS_P2;Temp;Humidity;BMP_temperature;BMP_pressure;BME280_temperature;BME280_humidity;BME280_pressure;Samples;Min_cycle;Max_cycle;Signal;HPM_P1;HPM_P2
2022/05/30 00:00:52;;;;;;;3.08;1.48;;;;;;;10.74;58.65;99536.53;5116037;28;20054;-75
2022/05/30 00:03:19;;;;;;;2.80;1.50;;;;;;;10.66;58.70;99526.28;5115869;28;20058;-75
2022/05/30 00:05:49;;;;;;;2.50;1.25;;;;;;;10.67;59.36;99533.47;5115403;28;20054;-75
2022/05/30 00:08:18;;;;;;;3.25;1.50;;;;;;;10.66;59.02;99532.63;5094340;28;20135;-75
2022/05/30 00:10:45;;;;;;;3.40;1.58;;;;;;;10.63;58.82;99533.28;5076685;28;20056;-75
2022/05/30 00:13:14;;;;;;;3.05;1.70;;;;;;;10.64;59.34;99545.25;5094951;28;20106;-76
2022/05/30 00:15:41;;;;;;;7.18;1.67;;;;;;;10.63;59.82;99543.63;5094903;28;20040;-74
2022/05/30 00:18:09;;;;;;;4.47;1.38;;;;;;;10.62;59.63;99536.41;5095305;28;20398;-75
2022/05/30 00:20:36;;;;;;;3.83;1.77;;;;;;;10.63;59.75;99549.19;5094748;28;20418;-75
2022/05/30 00:23:04;;;;;;;7.00;1.70;;;;;;;10.60;59.69;99555.41;5094712;28;20573;-74
2022/05/30 00:25:31;;;;;;;4.63;1.30;;;;;;;10.60;60.05;99552.63;5094964;28;20048;-76
2022/05/30 00:27:58;;;;;;;3.53;1.80;;;;;;;10.61;60.17;99557.03;5094923;28;20047;-74
2022/05/30 00:30:25;;;;;;;3.72;1.50;;;;;;;10.57;60.10;99556.88;5094782;28;20572;-75
2022/05/30 00:32:52;;;;;;;6.10;1.77;;;;;;;10.57;59.87;99559.66;5095124;28;20052;-75
2022/05/30 00:35:20;;;;;;;3.00;1.30;;;;;;;10.60;60.26;99558.19;5095014;28;20411;-75
2022/05/30 00:37:46;;;;;;;4.93;1.60;;;;;;;10.58;60.21;99557.72;5095011;28;20055;-69
2022/05/30 00:40:14;;;;;;;3.47;1.60;;;;;;;10.59;60.48;99562.13;5084053;28;20055;-69
2022/05/30 00:42:41;;;;;;;4.10;1.52;;;;;;;10.59;60.05;99568.50;5074325;28;20139;-69
2022/05/30 00:45:09;;;;;;;2.90;1.45;;;;;;;10.58;60.40;99561.31;5074099;28;20041;-69
2022/05/30 00:47:38;;;;;;;2.60;1.30;;;;;;;10.58;60.73;99568.84;5074370;28;20066;-69
2022/05/30 00:50:07;;;;;;;3.15;1.67;;;;;;;10.58;60.41;99575.22;5074293;28;20045;-69
2022/05/30 00:52:40;;;;;;;2.38;1.38;;;;;;;10.55;60.21;99561.97;5074109;28;20393;-69
2022/05/30 00:55:12;;;;;;;5.28;1.65;;;;;;;10.54;60.71;99574.22;5073828;28;20059;-69
2022/05/30 00:57:42;;;;;;;5.72;2.10;;;;;;;10.51;60.62;99576.88;5074096;28;20143;-69
2022/05/30 01:00:20;;;;;;;;;;;;;;;10.44;60.56;99579.34;5074486;28;20040;-69
2022/05/30 01:06:30;;;;;;;4.68;1.55;;;;;;;10.49;60.03;99576.38;5073967;28;19924;-69
2022/05/30 01:08:28;;;;;;;3.97;1.60;;;;;;;10.51;60.35;99576.88;5108229;28;20409;-69
2022/05/30 01:10:55;;;;;;;3.67;1.70;;;;;;;10.50;60.75;99584.41;5114235;28;20117;-70
2022/05/30 01:13:23;;;;;;;3.38;1.65;;;;;;;10.49;60.05;99579.16;5114486;28;20051;-69
2022/05/30 01:15:50;;;;;;;2.55;1.40;;;;;;;10.46;60.39;99582.63;5114045;28;20048;-70
2022/05/30 01:18:23;;;;;;;2.53;1.58;;;;;;;10.40;60.97;99576.41;5114258;28;20043;-73
2022/05/30 01:21:29;;;;;;;3.88;1.70;;;;;;;10.41;60.64;99577.22;5114168;28;20047;-70
2022/05/30 01:24:26;;;;;;;3.70;1.55;;;;;;;10.40;60.86;99589.50;5114822;28;20607;-69
2022/05/30 01:27:09;;;;;;;2.58;1.20;;;;;;;10.41;60.53;99586.38;5085084;28;20142;-72
2022/05/30 01:29:48;;;;;;;2.67;1.48;;;;;;;10.41;60.57;99583.59;5114150;28;20052;-72
2022/05/30 01:32:20;;;;;;;2.85;1.75;;;;;;;10.42;60.33;99588.00;5114440;28;20122;-69
2022/05/30 01:34:48;;;;;;;3.45;1.60;;;;;;;10.43;61.04;99591.63;5114520;28;20082;-70
2022/05/30 01:37:15;;;;;;;4.90;1.70;;;;;;;10.42;60.05;99590.00;5114226;28;20047;-70
2022/05/30 01:39:42;;;;;;;6.03;1.38;;;;;;;10.38;61.13;99591.78;5107951;28;20486;-70
2022/05/30 01:42:09;;;;;;;4.65;1.52;;;;;;;10.42;60.42;99592.78;5093117;28;20054;-70
2022/05/30 01:44:36;;;;;;;3.30;1.40;;;;;;;10.46;60.36;99599.28;5093286;28;20052;-69
2022/05/30 01:47:04;;;;;;;2.97;1.83;;;;;;;10.46;60.90;99600.13;5093441;28;20502;-70
2022/05/30 01:49:31;;;;;;;3.72;2.42;;;;;;;10.49;60.98;99604.19;5093448;28;20506;-69
2022/05/30 01:51:58;;;;;;;3.63;1.80;;;;;;;10.50;60.39;99606.66;5093372;28;20071;-69
2022/05/30 01:54:25;;;;;;;3.67;1.85;;;;;;;10.51;60.78;99608.28;5093025;28;20056;-70
2022/05/30 01:56:52;;;;;;;6.28;1.60;;;;;;;10.56;59.54;99621.19;5093207;28;20046;-68
2022/05/30 01:59:19;;;;;;;3.25;1.73;;;;;;;10.56;59.47;99610.06;5093512;28;20079;-69
2022/05/30 02:01:46;;;;;;;5.95;1.70;;;;;;;10.57;59.47;99617.28;5092832;28;20052;-69
2022/05/30 02:04:15;;;;;;;2.70;1.60;;;;;;;10.56;59.37;99618.41;5093749;28;20060;-69
2022/05/30 02:06:42;;;;;;;7.68;1.80;;;;;;;10.56;59.53;99610.06;5092876;28;20055;-69
2022/05/30 02:09:09;;;;;;;4.85;1.80;;;;;;;10.59;59.04;99617.75;5112272;28;20051;-70
2022/05/30 02:11:37;;;;;;;2.58;1.42;;;;;;;10.62;59.19;99625.44;5113072;28;20413;-70
2022/05/30 02:14:04;;;;;;;6.97;1.80;;;;;;;10.63;59.07;99615.97;5113375;28;20410;-70
2022/05/30 02:19:18;;;;;;;3.80;1.85;;;;;;;10.69;59.27;99636.88;5113135;28;20071;-69
2022/05/30 02:21:45;;;;;;;3.63;1.80;;;;;;;10.71;58.83;99634.56;5112992;28;20410;-69
2022/05/30 02:24:12;;;;;;;3.42;1.65;;;;;;;10.72;58.79;99636.22;5095317;28;20383;-74
2022/05/30 02:26:39;;;;;;;2.88;1.52;;;;;;;10.72;58.69;99634.25;5113005;28;20054;-69
2022/05/30 02:29:10;;;;;;;3.70;1.65;;;;;;;10.77;58.40;99638.81;5113074;28;20127;-69
2022/05/30 02:31:37;;;;;;;4.20;1.80;;;;;;;10.80;58.14;99643.72;5112358;28;20052;-70
2022/05/30 02:36:51;;;;;;;2.80;1.50;;;;;;;10.83;58.13;99631.91;5113085;28;20052;-69
2022/05/30 02:39:22;;;;;;;2.95;1.63;;;;;;;10.87;57.97;99641.25;5110164;28;20410;-68
2022/05/30 02:41:50;;;;;;;8.20;1.70;;;;;;;10.90;57.93;99654.50;5092848;28;20093;-69
2022/05/30 02:44:20;;;;;;;6.78;2.38;;;;;;;10.90;58.11;99655.31;5092935;28;20047;-69
2022/05/30 02:46:51;;;;;;;3.60;1.65;;;;;;;10.92;57.52;99649.41;5092463;28;20419;-68
2022/05/30 02:49:19;;;;;;;6.63;2.10;;;;;;;10.92;57.37;99660.53;5093212;28;20511;-69
2022/05/30 02:51:46;;;;;;;3.22;1.50;;;;;;;10.93;56.95;99651.06;5092347;28;20086;-68
2022/05/30 02:54:13;;;;;;;4.03;1.42;;;;;;;10.96;56.97;99669.88;5092714;28;20062;-69
2022/05/30 02:56:42;;;;;;;3.47;1.73;;;;;;;10.96;57.14;99669.88;5074641;28;20131;-69
2022/05/30 02:59:09;;;;;;;3.15;1.52;;;;;;;11.00;56.68;99666.09;5092299;28;20044;-69
2022/05/30 03:01:36;;;;;;;5.88;1.70;;;;;;;11.04;57.02;99667.06;5092487;28;20172;-69
2022/05/30 03:04:05;;;;;;;2.92;1.52;;;;;;;11.08;56.64;99664.44;5092816;28;20139;-69
2022/05/30 03:06:32;;;;;;;6.05;1.52;;;;;;;11.11;56.11;99672.91;5092130;28;20067;-68
2022/05/30 03:09:00;;;;;;;8.27;2.00;;;;;;;11.16;56.55;99680.28;5100244;28;20052;-74
2022/05/30 03:11:27;;;;;;;4.88;2.67;;;;;;;11.19;56.65;99676.81;5112708;28;20101;-75
2022/05/30 03:13:53;;;;;;;5.35;2.20;;;;;;;11.26;56.62;99671.56;5112895;28;20044;-75
2022/05/30 03:16:20;;;;;;;3.47;1.83;;;;;;;11.34;55.96;99679.03;5112653;28;20070;-75
2022/05/30 03:18:48;;;;;;;5.75;2.30;;;;;;;11.40;56.07;99683.28;5102193;28;20059;-75
2022/05/30 03:21:15;;;;;;;5.28;2.17;;;;;;;11.49;56.17;99686.84;5092159;28;20056;-75
2022/05/30 03:23:43;;;;;;;4.15;1.92;;;;;;;11.57;56.04;99685.19;5092243;28;20048;-75
2022/05/30 03:26:11;;;;;;;4.30;1.88;;;;;;;11.68;55.62;99687.28;5092268;28;20052;-75
2022/05/30 03:28:38;;;;;;;7.97;2.28;;;;;;;11.77;55.33;99685.25;5095496;28;20045;-75
2022/05/30 03:31:09;;;;;;;3.08;1.75;;;;;;;11.87;55.55;99689.63;5112517;28;20052;-75
2022/05/30 03:33:38;;;;;;;4.63;2.03;;;;;;;12.01;55.08;99690.19;5112846;28;20039;-75
2022/05/30 03:36:20;;;;;;;7.93;1.88;;;;;;;12.22;54.72;99693.78;5112560;28;20586;-76
2022/05/30 03:38:48;;;;;;;5.22;1.90;;;;;;;12.45;54.11;99700.69;5112454;28;20402;-75
2022/05/30 03:41:15;;;;;;;10.85;2.60;;;;;;;12.67;53.73;99709.50;5092803;28;20051;-75
2022/05/30 03:43:42;;;;;;;5.05;2.45;;;;;;;12.87;53.20;99705.88;5093408;28;20048;-75
2022/05/30 03:46:09;;;;;;;5.65;1.90;;;;;;;13.03;52.79;99705.25;5095580;28;20391;-75
2022/05/30 03:48:36;;;;;;;3.08;1.55;;;;;;;13.16;52.53;99709.69;5095783;28;20138;-75
2022/05/30 03:51:06;;;;;;;3.20;1.77;;;;;;;13.25;52.32;99714.03;5095647;28;20515;-75
2022/05/30 03:53:33;;;;;;;3.13;1.92;;;;;;;13.33;52.05;99724.31;5095652;28;20051;-74
2022/05/30 03:56:00;;;;;;;6.55;1.80;;;;;;;13.38;51.87;99720.47;5095323;28;20143;-75
2022/05/30 03:58:27;;;;;;;2.85;1.65;;;;;;;13.45;51.76;99729.09;5077097;28;20047;-76
2022/05/30 04:00:54;;;;;;;6.75;1.70;;;;;;;13.53;51.42;99730.97;5095424;28;20059;-75
2022/05/30 04:03:21;;;;;;;6.82;1.73;;;;;;;13.56;51.59;99730.28;5095090;28;20051;-76
2022/05/30 04:05:48;;;;;;;6.05;1.35;;;;;;;13.64;51.48;99727.34;5095370;28;20507;-74
2022/05/30 04:08:15;;;;;;;3.85;1.60;;;;;;;13.71;51.02;99737.97;5085328;28;20076;-75
2022/05/30 04:10:42;;;;;;;4.53;1.70;;;;;;;13.82;50.76;99725.97;5077150;28;20044;-75
2022/05/30 04:13:10;;;;;;;4.45;1.30;;;;;;;13.96;50.01;99739.59;5095116;28;20048;-75
2022/05/30 04:15:37;;;;;;;2.80;1.50;;;;;;;14.11;49.60;99733.28;5095145;28;20143;-75
2022/05/30 04:18:05;;;;;;;12.88;1.60;;;;;;;14.15;49.14;99748.22;5094985;28;20074;-75
2022/05/30 04:20:33;;;;;;;5.00;1.80;;;;;;;14.28;49.37;99747.88;5094987;28;20046;-72
2022/05/30 04:23:00;;;;;;;3.60;1.88;;;;;;;14.46;48.66;99759.63;5094931;28;20067;-71
2022/05/30 04:25:27;;;;;;;3.20;1.50;;;;;;;14.64;48.07;99749.78;5077029;28;20055;-72
2022/05/30 04:27:54;;;;;;;5.03;1.80;;;;;;;14.76;47.91;99760.94;5077103;28;20044;-73
2022/05/30 04:30:21;;;;;;;3.70;1.67;;;;;;;14.88;48.15;99766.50;5094518;28;20411;-72
2022/05/30 04:32:48;;;;;;;8.27;1.52;;;;;;;15.09;47.80;99761.50;5095080;28;20051;-73
2022/05/30 04:35:16;;;;;;;3.25;1.70;;;;;;;15.27;47.33;99768.44;5094988;28;20052;-67
2022/05/30 04:37:45;;;;;;;4.40;1.55;;;;;;;15.52;46.68;99772.78;5094888;28;20048;-68
2022/05/30 04:40:17;;;;;;;5.78;1.75;;;;;;;15.71;46.65;99772.88;5066772;28;20083;-66
2022/05/30 04:42:45;;;;;;;2.60;1.40;;;;;;;15.86;45.69;99774.88;5074399;28;20040;-66
2022/05/30 04:45:14;;;;;;;3.15;1.30;;;;;;;15.97;45.80;99766.72;5074128;28;20127;-66
2022/05/30 04:47:41;;;;;;;7.25;1.42;;;;;;;16.10;45.50;99763.44;5074197;28;20420;-66
2022/05/30 04:50:16;;;;;;;3.20;1.20;;;;;;;16.22;45.04;99756.91;5074061;28;20059;-66
2022/05/30 04:52:44;;;;;;;6.40;1.25;;;;;;;16.36;44.40;99748.81;5056143;28;20059;-70
2022/05/30 04:55:13;;;;;;;5.88;1.20;;;;;;;16.90;43.03;99741.22;5074063;28;20051;-73
2022/05/30 04:57:46;;;;;;;2.97;0.93;;;;;;;17.02;42.84;99749.50;5074258;28;20082;-68
2022/05/30 05:00:18;;;;;;;3.72;1.80;;;;;;;17.07;42.62;99756.81;5074244;28;20048;-66
2022/05/30 05:02:45;;;;;;;4.70;1.48;;;;;;;17.17;42.52;99757.03;5073867;28;20051;-67
2022/05/30 05:05:13;;;;;;;3.22;1.17;;;;;;;17.30;41.88;99761.34;5073983;28;20511;-67
2022/05/30 05:07:45;;;;;;;5.65;1.05;;;;;;;17.26;41.84;99757.63;5109505;28;20059;-69
2022/05/30 05:10:34;;;;;;;4.38;1.20;;;;;;;17.20;41.57;99749.88;5098151;28;20562;-70
2022/05/30 05:13:01;;;;;;;6.43;1.40;;;;;;;17.13;41.79;99758.16;5094249;28;20048;-70
2022/05/30 05:15:28;;;;;;;4.22;1.15;;;;;;;17.41;41.38;99751.09;5093955;28;20048;-69
2022/05/30 05:17:55;;;;;;;3.20;1.10;;;;;;;17.63;41.04;99752.34;5093960;28;20464;-69
2022/05/30 05:20:23;;;;;;;6.88;2.25;;;;;;;17.82;40.72;99753.09;5093925;28;20131;-68
2022/05/30 05:22:51;;;;;;;3.85;1.30;;;;;;;17.94;40.22;99758.53;5093531;28;20052;-69
2022/05/30 05:25:19;;;;;;;4.20;1.27;;;;;;;18.10;40.05;99755.56;5093813;28;20054;-69
2022/05/30 05:27:48;;;;;;;5.03;1.25;;;;;;;18.31;39.54;99758.72;5093993;28;20402;-70
2022/05/30 05:30:15;;;;;;;7.88;1.08;;;;;;;18.53;39.42;99757.09;5093141;28;20052;-70
2022/05/30 05:32:42;;;;;;;4.20;1.15;;;;;;;18.76;39.06;99750.16;5093751;28;20047;-70
2022/05/30 05:35:10;;;;;;;2.42;1.20;;;;;;;18.96;38.21;99756.47;5093591;28;20046;-71
2022/05/30 05:37:37;;;;;;;2.22;1.10;;;;;;;19.02;37.86;99764.22;5093618;28;20044;-70
2022/05/30 05:40:04;;;;;;;2.53;1.20;;;;;;;19.23;37.32;99767.28;5084429;28;20058;-70
2022/05/30 05:42:31;;;;;;;2.33;1.13;;;;;;;19.53;36.21;99767.25;5073212;28;20086;-68
2022/05/30 05:44:58;;;;;;;3.45;1.13;;;;;;;19.69;35.64;99754.50;5073082;28;20437;-68
2022/05/30 05:47:25;;;;;;;3.45;1.20;;;;;;;19.72;35.68;99753.75;5072900;28;20040;-68
2022/05/30 05:49:56;;;;;;;2.08;0.98;;;;;;;19.98;35.58;99754.81;5073264;28;20048;-68
2022/05/30 05:52:28;;;;;;;3.83;1.23;;;;;;;20.30;34.97;99748.22;5072795;28;20458;-67
2022/05/30 05:54:56;;;;;;;10.73;1.50;;;;;;;20.50;34.66;99745.94;5072749;28;20056;-68
2022/05/30 05:57:27;;;;;;;7.82;1.27;;;;;;;20.73;34.51;99752.16;5073069;28;20063;-69
2022/05/30 05:59:54;;;;;;;5.13;1.08;;;;;;;21.16;34.02;99748.34;5072565;28;20063;-68
2022/05/30 06:02:22;;;;;;;4.00;1.10;;;;;;;21.80;32.81;99755.00;5073137;28;20057;-68
2022/05/30 06:04:53;;;;;;;3.03;0.90;;;;;;;22.84;31.36;99748.50;5072705;28;20050;-68
2022/05/30 06:07:20;;;;;;;1.30;0.82;;;;;;;25.32;27.99;99749.88;5084616;28;20499;-67
2022/05/30 06:09:47;;;;;;;4.38;1.00;;;;;;;29.32;22.34;99750.06;5092916;28;20174;-68
2022/05/30 06:12:15;;;;;;;4.15;0.80;;;;;;;32.46;18.92;99749.94;5075341;28;20533;-68
2022/05/30 06:14:42;;;;;;;352.30;19.35;;;;;;;34.07;16.76;99752.47;5093280;28;20135;-68
2022/05/30 06:17:09;;;;;;;3.47;1.02;;;;;;;31.66;18.45;99765.50;5074586;28;20151;-74
2022/05/30 06:19:36;;;;;;;3.97;0.93;;;;;;;29.07;20.46;99763.53;5092931;28;20078;-75
2022/05/30 06:22:03;;;;;;;1.90;0.90;;;;;;;27.88;21.78;99759.56;5092601;28;20595;-74
2022/05/30 06:24:30;;;;;;;1.77;1.05;;;;;;;26.57;22.98;99757.72;5074922;28;20055;-74
2022/05/30 06:26:57;;;;;;;2.00;0.90;;;;;;;24.97;24.36;99761.69;5092478;28;20052;-74
2022/05/30 06:29:24;;;;;;;1.67;0.90;;;;;;;23.60;25.73;99750.63;5101441;28;20052;-74
2022/05/30 06:31:51;;;;;;;3.13;0.82;;;;;;;22.83;26.25;99763.88;5112774;28;20058;-74
2022/05/30 06:34:18;;;;;;;3.65;1.10;;;;;;;22.18;27.12;99765.56;5113128;28;20054;-74
2022/05/30 06:36:45;;;;;;;1.55;0.90;;;;;;;22.30;27.15;99763.16;5112737;28;20047;-74
2022/05/30 06:39:14;;;;;;;3.42;1.05;;;;;;;23.39;25.63;99760.09;5111363;28;20550;-75
2022/05/30 06:41:42;;;;;;;2.00;0.73;;;;;;;23.64;25.42;99751.41;5092427;28;20044;-75
2022/05/30 06:44:09;;;;;;;4.28;1.10;;;;;;;24.55;24.70;99756.41;5092699;28;20047;-74
2022/05/30 06:46:37;;;;;;;1.42;0.80;;;;;;;26.28;22.50;99761.50;5092606;28;20055;-74
2022/05/30 06:49:06;;;;;;;2.47;0.95;;;;;;;30.39;19.09;99765.59;5092497;28;20073;-74
2022/05/30 06:51:35;;;;;;;2.10;1.13;;;;;;;35.10;15.04;99762.03;5092327;28;20105;-74
2022/05/30 06:54:02;;;;;;;;;;;;;;;38.04;13.48;99766.03;5092395;28;20507;-74
2022/05/30 06:56:32;;;;;;;2.05;1.00;;;;;;;40.90;11.78;99770.47;5092191;28;19924;-74
2022/05/30 06:59:00;;;;;;;3.35;0.90;;;;;;;42.61;9.80;99770.25;5092554;28;20067;-75
2022/05/30 07:01:33;;;;;;;2.15;1.00;;;;;;;40.29;11.08;99775.59;5092572;28;20147;-75
2022/05/30 07:04:00;;;;;;;996.08;68.68;;;;;;;42.53;9.72;99762.63;5092403;28;20048;-74
2022/05/30 07:06:32;;;;;;;995.13;77.40;;;;;;;44.51;8.58;99773.75;5091886;28;20091;-75
2022/05/30 07:09:00;;;;;;;7.88;2.15;;;;;;;45.91;7.47;99785.88;5092516;28;20082;-72
2022/05/30 07:11:27;;;;;;;2.90;1.70;;;;;;;46.26;7.08;99771.34;5092208;28;20180;-72
2022/05/30 07:13:55;;;;;;;4.37;1.20;;;;;;;47.39;6.78;99774.44;5092521;28;20127;-70
2022/05/30 07:16:24;;;;;;;5.17;1.20;;;;;;;48.19;6.66;99781.81;5092223;28;20282;-70
2022/05/30 07:18:52;;;;;;;3.33;1.20;;;;;;;48.27;5.58;99774.56;5104497;28;20775;-70
2022/05/30 07:21:19;;;;;;;3.38;1.40;;;;;;;48.92;5.98;99767.69;5116380;28;20052;-71
2022/05/30 07:23:48;;;;;;;2.30;0.93;;;;;;;50.10;5.26;99777.38;5116553;28;20402;-68
2022/05/30 07:26:19;;;;;;;2.08;1.00;;;;;;;44.60;7.48;99776.25;5116113;28;20058;-69
2022/05/30 07:28:49;;;;;;;2.20;1.20;;;;;;;41.03;8.69;99773.63;5116693;28;20079;-69
2022/05/30 07:31:18;;;;;;;9.40;1.60;;;;;;;44.25;7.26;99770.78;5116024;28;20051;-68
2022/05/30 07:33:48;;;;;;;4.88;1.25;;;;;;;47.16;5.81;99780.19;5116247;28;20044;-70
2022/05/30 07:36:24;;;;;;;4.03;1.10;;;;;;;48.89;4.86;99780.69;5115783;28;20059;-69
2022/05/30 07:38:52;;;;;;;1.50;1.00;;;;;;;49.93;4.53;99789.09;5116052;28;20100;-69
2022/05/30 07:41:20;;;;;;;2.53;1.42;;;;;;;51.44;4.19;99789.47;5096002;28;20090;-69
2022/05/30 07:43:47;;;;;;;7.10;1.65;;;;;;;54.26;2.95;99796.06;5095093;28;20078;-69
2022/05/30 07:46:16;;;;;;;2.78;1.20;;;;;;;54.84;2.98;99778.75;5094762;28;20392;-69
2022/05/30 07:48:44;;;;;;;8.48;1.27;;;;;;;54.93;2.65;99777.91;5094714;28;20094;-70
2022/05/30 07:51:12;;;;;;;;;;;;;;;54.46;3.59;99772.91;5095696;28;20052;-69
2022/05/30 07:53:41;;;;;;;5.60;1.73;;;;;;;54.08;3.51;99776.81;5095803;28;19924;-70
2022/05/30 07:56:12;;;;;;;223.77;16.73;;;;;;;54.47;3.01;99775.28;5095673;28;20058;-70
2022/05/30 07:58:39;;;;;;;2.25;1.40;;;;;;;54.44;3.00;99779.53;5095347;28;20047;-71
2022/05/30 08:01:13;;;;;;;4.78;1.60;;;;;;;53.82;2.61;99769.63;5095244;28;20121;-70
2022/05/30 08:03:41;;;;;;;2.25;1.80;;;;;;;51.74;3.48;99770.50;5095313;28;20046;-70
2022/05/30 08:06:12;;;;;;;2.10;1.20;;;;;;;53.35;3.28;99773.41;5095032;28;20070;-70
2022/05/30 08:08:41;;;;;;;2.65;1.30;;;;;;;54.71;2.56;99783.00;5109167;28;20139;-69
2022/05/30 08:11:08;;;;;;;7.82;1.48;;;;;;;55.30;2.23;99785.81;5115199;28;20048;-69
2022/05/30 08:13:35;;;;;;;6.95;1.30;;;;;;;55.27;2.03;99793.06;5115346;28;20043;-69
2022/05/30 08:16:04;;;;;;;2.05;1.23;;;;;;;54.95;2.04;99793.72;5115342;28;20051;-70
2022/05/30 08:18:32;;;;;;;2.03;1.30;;;;;;;55.08;2.55;99795.38;5097242;28;20051;-69
2022/05/30 08:21:00;;;;;;;2.22;1.40;;;;;;;54.57;2.14;99796.13;5115406;28;20058;-68
2022/05/30 08:23:27;;;;;;;1.50;1.30;;;;;;;55.25;1.87;99801.88;5115441;28;20397;-69
2022/05/30 08:25:55;;;;;;;2.83;1.30;;;;;;;55.98;1.81;99819.66;5115115;28;20134;-69
2022/05/30 08:28:22;;;;;;;34.50;3.42;;;;;;;55.27;1.93;99810.97;5115171;28;20040;-69
2022/05/30 08:30:50;;;;;;;3.08;1.50;;;;;;;55.25;1.77;99801.09;5114322;28;20499;-69
2022/05/30 08:33:19;;;;;;;8.70;1.67;;;;;;;55.89;1.78;99805.59;5115183;28;20043;-69
2022/05/30 08:35:47;;;;;;;3.65;1.35;;;;;;;55.86;1.74;99806.09;5108238;28;20101;-69
2022/05/30 08:38:14;;;;;;;2.90;1.55;;;;;;;54.88;2.16;99797.72;5094351;28;20456;-69
2022/05/30 08:43:35;;;;;;;2.17;1.30;;;;;;;55.74;2.02;99808.25;5094501;28;20044;-70
2022/05/30 08:46:08;;;;;;;4.32;1.50;;;;;;;57.24;1.75;99808.50;5094317;28;20143;-69
2022/05/30 08:49:12;;;;;;;3.90;2.05;;;;;;;57.36;1.27;99809.25;5094077;28;20048;-70
2022/05/30 08:51:51;;;;;;;10.00;2.88;;;;;;;56.93;1.33;99809.59;5094232;28;20047;-70
2022/05/30 08:54:34;;;;;;;4.32;1.33;;;;;;;55.33;1.54;99808.41;5094437;28;20135;-69
2022/05/30 08:57:07;;;;;;;6.60;1.02;;;;;;;51.39;2.99;99787.53;5100525;28;20051;-69
2022/05/30 08:59:56;;;;;;;;;;;;;;;51.15;3.53;99782.44;5114787;28;20051;-69
2022/05/30 09:02:43;;;;;;;7.40;1.50;;;;;;;52.87;3.06;99793.31;5114600;28;20015;-70
2022/05/30 09:05:19;;;;;;;3.20;1.30;;;;;;;53.66;2.89;99791.44;5114350;28;20045;-70
2022/05/30 09:08:09;;;;;;;2.85;1.40;;;;;;;52.89;3.18;99783.78;5113992;28;20152;-70
2022/05/30 09:10:53;;;;;;;3.20;1.50;;;;;;;54.60;2.62;99794.84;5114461;28;20053;-70
2022/05/30 09:13:42;;;;;;;4.82;1.30;;;;;;;49.42;3.75;99793.25;5114298;28;20051;-70
2022/05/30 09:16:09;;;;;;;2.03;0.95;;;;;;;42.29;7.02;99780.88;5114523;28;20039;-71
2022/05/30 09:18:46;;;;;;;7.40;1.48;;;;;;;42.44;6.99;99775.47;5114550;28;20055;-72
2022/05/30 09:21:15;;;;;;;6.30;1.40;;;;;;;45.73;5.71;99784.63;5114187;28;20050;-71
2022/05/30 09:23:43;;;;;;;3.53;1.02;;;;;;;44.43;6.22;99778.72;5113940;28;20455;-71
2022/05/30 09:26:16;;;;;;;5.20;1.50;;;;;;;45.77;5.39;99770.44;5114071;28;20047;-71
2022/05/30 09:28:47;;;;;;;2.03;1.17;;;;;;;48.80;4.07;99775.38;5114081;28;20059;-72
2022/05/30 09:31:49;;;;;;;2.30;1.10;;;;;;;46.31;5.12;99782.22;5113791;28;20067;-70
2022/05/30 09:34:37;;;;;;;3.55;1.85;;;;;;;42.71;6.93;99783.19;5113521;28;20525;-71
2022/05/30 09:37:05;;;;;;;1.92;1.00;;;;;;;38.21;8.99;99780.72;5094971;28;20138;-70
2022/05/30 09:39:45;;;;;;;2.53;1.20;;;;;;;34.71;10.96;99779.78;5094261;28;20079;-70
2022/05/30 09:42:49;;;;;;;2.58;1.30;;;;;;;32.70;12.65;99785.53;5093516;28;20039;-69
2022/05/30 09:45:35;;;;;;;4.13;0.82;;;;;;;30.98;14.39;99777.09;5093239;28;20043;-71
2022/05/30 09:48:05;;;;;;;6.00;1.23;;;;;;;29.58;15.36;99789.03;5093516;28;20499;-71
2022/05/30 09:50:41;;;;;;;2.53;1.25;;;;;;;28.54;15.95;99787.84;5093198;28;20146;-71
2022/05/30 09:53:09;;;;;;;2.45;0.93;;;;;;;28.19;16.67;99778.03;5093277;28;20046;-75
2022/05/30 09:55:44;;;;;;;2.58;1.10;;;;;;;28.00;16.97;99780.94;5093012;28;20052;-70
2022/05/30 09:58:11;;;;;;;2.30;1.00;;;;;;;27.85;17.02;99785.34;5093191;28;20048;-71
2022/05/30 10:00:53;;;;;;;2.70;1.10;;;;;;;27.57;17.16;99789.66;5109162;28;20050;-71
2022/05/30 10:03:23;;;;;;;4.13;1.23;;;;;;;27.38;17.31;99793.31;5113244;28;20474;-72
2022/05/30 10:05:51;;;;;;;2.60;0.95;;;;;;;26.86;17.79;99780.88;5113026;28;20047;-72
2022/05/30 10:08:30;;;;;;;3.53;1.00;;;;;;;26.51;18.48;99793.72;5113072;28;20053;-72
2022/05/30 10:10:58;;;;;;;3.05;1.10;;;;;;;26.09;18.83;99777.31;5099463;28;20469;-71
2022/05/30 10:13:34;;;;;;;3.95;1.20;;;;;;;25.82;18.90;99772.81;5074644;28;20063;-71
2022/05/30 10:16:04;;;;;;;6.10;1.27;;;;;;;25.39;19.20;99778.28;5092594;28;20052;-70
2022/05/30 10:18:40;;;;;;;2.58;1.20;;;;;;;25.01;19.47;99768.94;5092734;28;20079;-75
2022/05/30 10:31:09;;;;;;;1.75;0.88;;;;;;;24.39;20.52;99759.78;5074464;28;20048;-77
2022/05/30 10:33:49;;;;;;;2.28;0.88;;;;;;;24.45;20.61;99771.53;5092867;28;20502;-71
2022/05/30 10:36:31;;;;;;;;;;;;;;;24.27;20.44;99762.34;5092749;28;20538;-71
2022/05/30 10:39:25;;;;;;;4.30;1.20;;;;;;;24.32;20.93;99771.25;5092527;28;19981;-70
2022/05/30 10:41:54;;;;;;;2.45;0.90;;;;;;;24.28;21.02;99758.28;5092667;28;20048;-72
2022/05/30 10:44:23;;;;;;;;;;;;;;;24.22;20.79;99749.38;5093419;28;20139;-70
2022/05/30 10:47:00;;;;;;;4.97;1.00;;;;;;;24.48;20.98;99753.63;5092627;28;19930;-70
2022/05/30 10:49:34;;;;;;;7.22;1.00;;;;;;;24.56;20.97;99763.69;5092556;28;20105;-70
2022/05/30 10:52:06;;;;;;;3.78;1.08;;;;;;;24.38;21.05;99757.38;5092328;28;20056;-70
2022/05/30 10:54:45;;;;;;;1.10;0.88;;;;;;;24.19;21.60;99755.09;5096607;28;20050;-70
2022/05/30 10:57:17;;;;;;;4.35;1.13;;;;;;;23.96;21.74;99746.34;5096852;28;20569;-70
2022/05/30 10:59:55;;;;;;;5.05;0.88;;;;;;;23.56;22.22;99744.16;5105350;28;20112;-70
2022/05/30 11:02:30;;;;;;;4.72;1.08;;;;;;;23.14;22.72;99740.28;5117223;28;20100;-72
2022/05/30 11:05:06;;;;;;;3.50;0.98;;;;;;;23.01;22.93;99741.94;5117136;28;20044;-71
2022/05/30 11:07:33;;;;;;;2.22;1.00;;;;;;;23.01;22.94;99744.78;5116395;28;20067;-71
2022/05/30 11:10:20;;;;;;;2.40;0.90;;;;;;;23.04;22.75;99735.44;5116933;28;20125;-70
2022/05/30 11:13:02;;;;;;;2.60;0.85;;;;;;;23.01;23.30;99730.59;5098191;28;20044;-71
2022/05/30 11:15:34;;;;;;;1.38;0.90;;;;;;;22.90;22.87;99735.50;5116243;28;20047;-71
2022/05/30 11:18:13;;;;;;;1.50;0.88;;;;;;;22.69;23.33;99738.41;5116496;28;20449;-70
2022/05/30 11:20:48;;;;;;;3.88;0.90;;;;;;;22.53;23.28;99742.91;5116535;28;20130;-70
2022/05/30 11:23:18;;;;;;;2.97;1.00;;;;;;;22.38;23.12;99733.56;5116236;28;20421;-70
2022/05/30 11:25:45;;;;;;;;;;;;;;;22.28;22.88;99731.56;5116807;28;20044;-71
2022/05/30 11:28:35;;;;;;;1.50;0.80;;;;;;;22.22;22.76;99726.69;5116098;28;20430;-70
2022/05/30 11:31:27;;;;;;;1.35;0.80;;;;;;;22.13;23.00;99715.78;5116163;28;20052;-70
2022/05/30 11:34:09;;;;;;;6.22;0.98;;;;;;;22.17;23.09;99710.91;5116602;28;20044;-71
2022/05/30 11:37:00;;;;;;;8.18;1.02;;;;;;;22.13;22.88;99712.94;5082999;28;20152;-71
2022/05/30 11:39:42;;;;;;;1.25;0.80;;;;;;;22.19;23.13;99705.66;5095612;28;20048;-71
2022/05/30 11:42:40;;;;;;;1.75;0.82;;;;;;;22.30;22.81;99711.31;5095767;28;20547;-70
2022/05/30 11:45:22;;;;;;;3.08;1.02;;;;;;;22.21;23.07;99711.72;5095256;28;20044;-69
2022/05/30 11:47:49;;;;;;;1.05;0.70;;;;;;;22.06;23.29;99707.28;5095589;28;20503;-70
2022/05/30 11:50:22;;;;;;;5.43;2.13;;;;;;;22.11;23.49;99703.25;5095522;28;20392;-71
2022/05/30 11:53:02;;;;;;;15.07;0.98;;;;;;;22.18;23.46;99706.88;5095559;28;20572;-72
2022/05/30 11:55:41;;;;;;;16.50;1.63;;;;;;;22.08;23.24;99685.00;5095510;28;20384;-71
2022/05/30 11:58:22;;;;;;;5.10;1.00;;;;;;;22.15;23.21;99695.53;5095534;28;20136;-70
2022/05/30 12:00:51;;;;;;;3.85;1.15;;;;;;;22.05;23.23;99688.66;5095316;28;20582;-69
2022/05/30 12:03:22;;;;;;;2.33;0.85;;;;;;;21.93;23.45;99679.78;5094981;28;20054;-70
2022/05/30 12:05:59;;;;;;;6.65;1.38;;;;;;;21.95;23.61;99683.81;5106724;28;20055;-70
2022/05/30 12:09:12;;;;;;;10.40;1.45;;;;;;;22.00;23.28;99680.59;5115227;28;20166;-70
2022/05/30 12:12:21;;;;;;;8.93;1.05;;;;;;;22.18;23.22;99684.22;5095484;28;20059;-69
2022/05/30 12:15:33;;;;;;;1.80;0.90;;;;;;;22.32;23.22;99681.31;5094630;28;20127;-70
2022/05/30 12:24:11;;;;;;;2.42;1.00;;;;;;;22.22;23.62;99681.34;5095572;28;20094;-74